Time;durP1;ratioP1;P1;durP2;ratioP2;P2;SDS_P1;SDS_P2;PMS_P1;PMS_P2;Temp;Humidity;BMP_temperature;BMP_pressure;BME280_temperature;BME280_humidity;BME280_pressure;Samples;Min_cycle;Max_cycle;Signal;HPM_P1;HPM_P2
2023/04/29 00:01:19;;;;;;;;;;;9.10;99.90;;;;;;5020826;28;19940;-79
2023/04/29 00:03:46;;;;;;;;;;;9.10;99.90;;;;;;5020699;28;20347;-79
2023/04/29 00:06:13;;;;;;;;;;;9.10;99.90;;;;;;5020552;28;19924;-80
2023/04/29 00:08:40;;;;;;;;;;;9.10;99.90;;;;;;5021312;28;20314;-79
2023/04/29 00:11:07;;;;;;;;;;;9.10;99.90;;;;;;5018573;28;20376;-78
2023/04/29 00:13:34;;;;;;;;;;;9.10;99.90;;;;;;5034732;28;20016;-81
2023/04/29 00:16:01;;;;;;;;;;;9.10;99.90;;;;;;5034343;28;20270;-81
2023/04/29 00:18:27;;;;;;;;;;;9.10;99.90;;;;;;5036066;28;19927;-81
2023/04/29 00:20:54;;;;;;;;;;;9.00;99.90;;;;;;5020287;28;19928;-79
2023/04/29 00:23:21;;;;;;;;;;;8.90;99.90;;;;;;5019553;28;19925;-79
2023/04/29 00:25:48;;;;;;;;;;;8.90;99.90;;;;;;5019342;28;19921;-79
2023/04/29 00:28:15;;;;;;;;;;;8.90;99.90;;;;;;5035639;28;20345;-79
2023/04/29 00:30:41;;;;;;;;;;;8.80;99.90;;;;;;5019165;28;19932;-79
2023/04/29 00:33:08;;;;;;;;;;;8.70;99.90;;;;;;5019242;28;20015;-79
2023/04/29 00:35:35;;;;;;;;;;;8.70;99.90;;;;;;5002721;28;19932;-79
2023/04/29 00:38:01;;;;;;;;;;;8.70;99.90;;;;;;5002119;28;20380;-80
2023/04/29 00:40:28;;;;;;;;;;;8.60;99.90;;;;;;5019812;28;19925;-80
2023/04/29 00:42:56;;;;;;;;;;;8.60;99.90;;;;;;5018892;28;20369;-79
2023/04/29 00:45:23;;;;;;;;;;;8.60;99.90;;;;;;5019767;28;19952;-79
2023/04/29 00:47:49;;;;;;;;;;;8.60;99.90;;;;;;5035017;28;19979;-80
2023/04/29 00:50:17;;;;;;;;;;;8.60;99.90;;;;;;5020242;28;19925;-79
2023/04/29 00:52:43;;;;;;;;;;;8.60;99.90;;;;;;5020637;28;20011;-80
2023/04/29 00:55:13;;;;;;;;;;;8.50;99.90;;;;;;5019403;28;19925;-79
2023/04/29 00:57:41;;;;;;;;;;;8.50;99.90;;;;;;5019877;28;19921;-80
2023/04/29 01:00:08;;;;;;;;;;;8.50;99.90;;;;;;5018787;28;19924;-80
2023/04/29 01:02:35;;;;;;;;;;;8.50;99.90;;;;;;5020286;28;20384;-79
2023/04/29 01:05:02;;;;;;;;;;;8.40;99.90;;;;;;5018852;28;20430;-79
2023/04/29 01:07:38;;;;;;;;;;;8.40;99.90;;;;;;5018430;28;19960;-79
2023/04/29 01:10:08;;;;;;;;;;;8.20;99.90;;;;;;5016930;28;20124;-80
2023/04/29 01:12:35;;;;;;;;;;;8.20;99.90;;;;;;5019859;28;19921;-80
2023/04/29 01:15:02;;;;;;;;;;;8.20;99.90;;;;;;5019784;28;20018;-79
2023/04/29 01:17:30;;;;;;;;;;;8.20;99.90;;;;;;5019111;28;20219;-80
2023/04/29 01:19:57;;;;;;;;;;;8.10;99.90;;;;;;5020028;28;20282;-79
2023/04/29 01:22:24;;;;;;;;;;;8.10;99.90;;;;;;5018395;28;20020;-79
2023/04/29 01:24:50;;;;;;;;;;;8.20;99.90;;;;;;5033764;28;19925;-80
2023/04/29 01:27:36;;;;;;;;;;;8.20;99.90;;;;;;5019648;28;20396;-79
2023/04/29 01:30:26;;;;;;;;;;;8.10;99.90;;;;;;5019953;28;19921;-79
2023/04/29 01:32:59;;;;;;;;;;;8.10;99.90;;;;;;5021437;28;19929;-78
2023/04/29 01:35:35;;;;;;;;;;;8.10;99.90;;;;;;5023740;28;20204;-78
2023/04/29 01:38:08;;;;;;;;;;;8.00;99.90;;;;;;5023809;28;19961;-79
2023/04/29 01:40:42;;;;;;;;;;;8.00;99.90;;;;;;5020170;28;19968;-79
2023/04/29 01:43:10;;;;;;;;;;;8.00;99.90;;;;;;5021175;28;20297;-78
2023/04/29 01:45:40;;;;;;;;;;;8.00;99.90;;;;;;5022266;28;19932;-78
2023/04/29 01:48:07;;;;;;;;;;;8.00;99.90;;;;;;5021973;28;20019;-79
2023/04/29 01:50:34;;;;;;;;;;;7.90;99.90;;;;;;5023277;28;20288;-78
2023/04/29 01:53:00;;;;;;;;;;;7.90;99.90;;;;;;5022390;28;20007;-79
2023/04/29 01:55:27;;;;;;;;;;;7.80;99.90;;;;;;5020702;28;19921;-79
2023/04/29 01:57:54;;;;;;;;;;;7.80;99.90;;;;;;5038097;28;20004;-79
2023/04/29 02:00:21;;;;;;;;;;;7.70;99.90;;;;;;5022245;28;19940;-79
2023/04/29 02:02:48;;;;;;;;;;;7.70;99.90;;;;;;5021410;28;19989;-79
2023/04/29 02:05:14;;;;;;;;;;;7.70;99.90;;;;;;5005684;28;19929;-79
2023/04/29 02:07:43;;;;;;;;;;;7.70;99.90;;;;;;5021675;28;20379;-79
2023/04/29 02:10:10;;;;;;;;;;;7.70;99.90;;;;;;5020726;28;19951;-79
2023/04/29 02:12:37;;;;;;;;;;;7.70;99.90;;;;;;5022105;28;19921;-79
2023/04/29 02:15:05;;;;;;;;;;;7.70;99.90;;;;;;5021797;28;20305;-79
2023/04/29 02:17:32;;;;;;;;;;;7.60;99.90;;;;;;5037805;28;19983;-79
2023/04/29 02:19:59;;;;;;;;;;;7.60;99.90;;;;;;5023545;28;19947;-79
2023/04/29 02:22:26;;;;;;;;;;;7.60;99.90;;;;;;5021709;28;20385;-79
2023/04/29 02:24:52;;;;;;;;;;;7.60;99.90;;;;;;5021250;28;19921;-79
2023/04/29 02:27:19;;;;;;;;;;;7.50;99.90;;;;;;5038109;28;19928;-78
2023/04/29 02:29:46;;;;;;;;;;;7.40;99.90;;;;;;5022091;28;19921;-79
2023/04/29 02:32:14;;;;;;;;;;;7.40;99.90;;;;;;5022049;28;19921;-79
2023/04/29 02:34:41;;;;;;;;;;;7.50;99.90;;;;;;5021994;28;19925;-79
2023/04/29 02:37:08;;;;;;;;;;;7.40;99.90;;;;;;5018077;28;19921;-80
2023/04/29 02:39:35;;;;;;;;;;;7.40;99.90;;;;;;5018056;28;20339;-78
2023/04/29 02:42:01;;;;;;;;;;;7.30;99.90;;;;;;5018320;28;19921;-79
2023/04/29 02:44:30;;;;;;;;;;;7.30;99.90;;;;;;5020603;28;19951;-79
2023/04/29 02:46:57;;;;;;;;;;;7.30;99.90;;;;;;5021191;28;20024;-79
2023/04/29 02:49:23;;;;;;;;;;;7.30;99.90;;;;;;5021912;28;20020;-79
2023/04/29 02:51:50;;;;;;;;;;;7.30;99.90;;;;;;5022023;28;20331;-79
2023/04/29 02:54:17;;;;;;;;;;;7.30;99.90;;;;;;5020963;28;19922;-79
2023/04/29 02:56:44;;;;;;;;;;;7.20;99.90;;;;;;5029822;28;19999;-79
2023/04/29 02:59:11;;;;;;;;;;;7.10;99.90;;;;;;5026682;28;19943;-78
2023/04/29 03:01:39;;;;;;;;;;;7.10;99.90;;;;;;5026698;28;20050;-79
2023/04/29 03:04:06;;;;;;;;;;;7.00;99.90;;;;;;5021979;28;19921;-79
2023/04/29 03:06:33;;;;;;;;;;;7.00;99.90;;;;;;5021641;28;19989;-80
2023/04/29 03:09:00;;;;;;;;;;;7.00;99.90;;;;;;5006981;28;19922;-80
2023/04/29 03:11:27;;;;;;;;;;;7.00;99.90;;;;;;5020430;28;20016;-79
2023/04/29 03:13:54;;;;;;;;;;;7.00;99.90;;;;;;5021884;28;20017;-78
2023/04/29 03:16:20;;;;;;;;;;;7.00;99.90;;;;;;5020573;28;20448;-79
2023/04/29 03:18:48;;;;;;;;;;;6.90;99.90;;;;;;5022016;28;19921;-79
2023/04/29 03:21:15;;;;;;;;;;;6.90;99.90;;;;;;5006385;28;19981;-79
2023/04/29 03:23:43;;;;;;;;;;;6.90;99.90;;;;;;5018670;28;19924;-79
2023/04/29 03:26:10;;;;;;;;;;;6.80;99.90;;;;;;5020090;28;20019;-79
2023/04/29 03:28:37;;;;;;;;;;;6.70;99.90;;;;;;5021249;28;19921;-79
2023/04/29 03:31:04;;;;;;;;;;;6.70;99.90;;;;;;5006371;28;19921;-80
2023/04/29 03:33:30;;;;;;;;;;;6.70;99.90;;;;;;5016734;28;20425;-79
2023/04/29 03:35:57;;;;;;;;;;;6.80;99.90;;;;;;5025809;28;20368;-79
2023/04/29 03:38:24;;;;;;;;;;;6.80;99.90;;;;;;5024548;28;20019;-79
2023/04/29 03:40:51;;;;;;;;;;;6.70;99.90;;;;;;5023307;28;19947;-78
2023/04/29 03:43:18;;;;;;;;;;;6.60;99.90;;;;;;5024282;28;19929;-79
2023/04/29 03:45:44;;;;;;;;;;;6.60;99.90;;;;;;5024265;28;20012;-79
2023/04/29 03:48:12;;;;;;;;;;;6.60;99.90;;;;;;5024118;28;19975;-78
2023/04/29 03:50:38;;;;;;;;;;;6.60;99.90;;;;;;5041113;28;20016;-79
2023/04/29 03:53:05;;;;;;;;;;;6.70;99.90;;;;;;5024190;28;19928;-79
2023/04/29 03:55:32;;;;;;;;;;;6.70;99.90;;;;;;5021871;28;19953;-79
2023/04/29 03:57:58;;;;;;;;;;;6.70;99.90;;;;;;5023355;28;19943;-79
2023/04/29 04:00:25;;;;;;;;;;;6.70;99.90;;;;;;5023459;28;19982;-79
2023/04/29 04:02:52;;;;;;;;;;;6.60;99.90;;;;;;5023529;28;19936;-79
2023/04/29 04:05:20;;;;;;;;;;;6.60;99.90;;;;;;5025391;28;19925;-78
2023/04/29 04:07:47;;;;;;;;;;;6.60;99.90;;;;;;5007226;28;19928;-79
2023/04/29 04:10:14;;;;;;;;;;;6.60;99.90;;;;;;5039123;28;19950;-79
2023/04/29 04:12:41;;;;;;;;;;;6.60;99.90;;;;;;5033998;28;19951;-80
2023/04/29 04:15:09;;;;;;;;;;;6.50;99.90;;;;;;5023488;28;19925;-79
2023/04/29 04:17:36;;;;;;;;;;;6.50;99.90;;;;;;5039651;28;19944;-79
2023/04/29 04:20:04;;;;;;;;;;;6.40;99.90;;;;;;5023454;28;20407;-79
2023/04/29 04:22:30;;;;;;;;;;;6.40;99.90;;;;;;5023686;28;20368;-79
2023/04/29 04:24:57;;;;;;;;;;;6.50;99.90;;;;;;5023602;28;19921;-79
2023/04/29 04:27:24;;;;;;;;;;;6.40;99.90;;;;;;5024152;28;19925;-79
2023/04/29 04:29:53;;;;;;;;;;;6.40;99.90;;;;;;5023067;28;19960;-79
2023/04/29 04:32:20;;;;;;;;;;;6.40;99.90;;;;;;5022915;28;19971;-80
2023/04/29 04:34:48;;;;;;;;;;;6.30;99.90;;;;;;5024900;28;19975;-79
2023/04/29 04:37:15;;;;;;;;;;;6.30;99.90;;;;;;5024614;28;19920;-79
2023/04/29 04:39:41;;;;;;;;;;;6.30;99.90;;;;;;5038464;28;20447;-79
2023/04/29 04:42:08;;;;;;;;;;;6.30;99.90;;;;;;5023038;28;19979;-79
2023/04/29 04:44:36;;;;;;;;;;;6.20;99.90;;;;;;5019818;28;19921;-79
2023/04/29 04:47:03;;;;;;;;;;;6.20;99.90;;;;;;5029048;28;19964;-79
2023/04/29 04:49:30;;;;;;;;;;;6.30;99.90;;;;;;5022758;28;19929;-79
2023/04/29 04:51:56;;;;;;;;;;;6.30;99.90;;;;;;5024461;28;19936;-79
2023/04/29 04:54:23;;;;;;;;;;;6.30;99.90;;;;;;5038097;28;20071;-80
2023/04/29 04:56:51;;;;;;;;;;;6.20;99.90;;;;;;5038889;28;19980;-80
2023/04/29 04:59:17;;;;;;;;;;;6.20;99.90;;;;;;5024410;28;20327;-79
2023/04/29 05:01:44;;;;;;;;;;;6.10;99.90;;;;;;5039418;28;20020;-79
2023/04/29 05:04:11;;;;;;;;;;;6.20;99.90;;;;;;5033704;28;19924;-78
2023/04/29 05:06:38;;;;;;;;;;;6.20;99.90;;;;;;5015186;28;19979;-79
2023/04/29 05:09:05;;;;;;;;;;;6.30;99.90;;;;;;5000374;28;20011;-79
2023/04/29 05:11:32;;;;;;;;;;;6.30;99.90;;;;;;4999282;28;19940;-80
2023/04/29 05:13:58;;;;;;;;;;;6.40;99.90;;;;;;5018827;28;19921;-78
2023/04/29 05:16:25;;;;;;;;;;;6.40;99.90;;;;;;5019150;28;20153;-79
2023/04/29 05:18:52;;;;;;;;;;;6.40;99.90;;;;;;5019436;28;19972;-79
2023/04/29 05:21:19;;;;;;;;;;;6.40;99.90;;;;;;5018800;28;19924;-79
2023/04/29 05:23:45;;;;;;;;;;;6.40;99.90;;;;;;5035896;28;19925;-79
2023/04/29 05:26:12;;;;;;;;;;;6.40;99.90;;;;;;5017362;28;19975;-79
2023/04/29 05:28:39;;;;;;;;;;;6.50;99.90;;;;;;5019092;28;19921;-80
2023/04/29 05:31:06;;;;;;;;;;;6.60;99.90;;;;;;5018521;28;20030;-79
2023/04/29 05:33:33;;;;;;;;;;;6.70;99.90;;;;;;5019670;28;19921;-79
2023/04/29 05:36:00;;;;;;;;;;;6.80;99.90;;;;;;5019776;28;19960;-79
2023/04/29 05:38:27;;;;;;;;;;;6.90;99.90;;;;;;5019258;28;19921;-80
2023/04/29 05:40:55;;;;;;;;;;;7.00;99.90;;;;;;5017855;28;19952;-80
2023/04/29 05:43:21;;;;;;;;;;;7.10;99.90;;;;;;5017624;28;19928;-79
2023/04/29 05:45:48;;;;;;;;;;;7.30;99.90;;;;;;5018301;28;19933;-79
2023/04/29 05:48:15;;;;;;;;;;;7.40;99.90;;;;;;5018460;28;19963;-79
2023/04/29 05:50:43;;;;;;;;;;;7.50;99.90;;;;;;5018304;28;19921;-79
2023/04/29 05:53:10;;;;;;;;;;;7.60;99.90;;;;;;5018094;28;19939;-80
2023/04/29 05:55:36;;;;;;;;;;;7.70;99.90;;;;;;5017334;28;19921;-80
2023/04/29 05:58:04;;;;;;;;;;;7.90;99.90;;;;;;5014927;28;19937;-78
2023/04/29 06:00:30;;;;;;;;;;;8.00;99.90;;;;;;5030840;28;19925;-79
2023/04/29 06:02:57;;;;;;;;;;;8.10;99.90;;;;;;5015735;28;20225;-80
2023/04/29 06:05:25;;;;;;;;;;;8.20;99.90;;;;;;5015526;28;19921;-79
2023/04/29 06:07:52;;;;;;;;;;;8.40;99.90;;;;;;5031276;28;19948;-79
2023/04/29 06:10:19;;;;;;;;;;;8.50;99.90;;;;;;5014325;28;19921;-78
2023/04/29 06:12:47;;;;;;;;;;;8.60;99.90;;;;;;5027119;28;20024;-79
2023/04/29 06:15:15;;;;;;;;;;;8.80;99.90;;;;;;5013560;28;20406;-80
2023/04/29 06:17:41;;;;;;;;;;;8.90;99.90;;;;;;5012019;28;20320;-79
2023/04/29 06:20:09;;;;;;;;;;;9.00;99.90;;;;;;5014194;28;19931;-79
2023/04/29 06:22:36;;;;;;;;;;;9.20;99.90;;;;;;5017153;28;19995;-80
2023/04/29 06:25:03;;;;;;;;;;;9.30;99.90;;;;;;5017464;28;20400;-79
2023/04/29 06:27:30;;;;;;;;;;;9.40;99.90;;;;;;5017519;28;20398;-79
2023/04/29 06:29:57;;;;;;;;;;;9.50;99.90;;;;;;5034564;28;19925;-79
2023/04/29 06:32:24;;;;;;;;;;;9.60;99.90;;;;;;5019141;28;20034;-79
2023/04/29 06:34:51;;;;;;;;;;;9.60;99.90;;;;;;5018540;28;19936;-79
2023/04/29 06:37:17;;;;;;;;;;;9.60;99.90;;;;;;5018021;28;19948;-79
2023/04/29 06:39:44;;;;;;;;;;;9.60;99.90;;;;;;5016851;28;20031;-79
2023/04/29 06:42:11;;;;;;;;;;;9.60;99.90;;;;;;5034476;28;19956;-80
2023/04/29 06:44:37;;;;;;;;;;;9.60;99.90;;;;;;5019348;28;19936;-80
2023/04/29 06:47:04;;;;;;;;;;;9.70;99.90;;;;;;5033731;28;19931;-80
2023/04/29 06:49:31;;;;;;;;;;;9.70;99.90;;;;;;5019128;28;19929;-80
2023/04/29 06:51:58;;;;;;;;;;;9.80;99.90;;;;;;5019297;28;20432;-79
2023/04/29 06:54:26;;;;;;;;;;;9.90;99.90;;;;;;5032967;28;19971;-79
2023/04/29 06:56:53;;;;;;;;;;;10.00;99.90;;;;;;5013955;28;20088;-80
2023/04/29 06:59:20;;;;;;;;;;;10.20;99.90;;;;;;5014873;28;20004;-79
2023/04/29 07:01:46;;;;;;;;;;;10.30;99.90;;;;;;5014299;28;19928;-79
2023/04/29 07:04:15;;;;;;;;;;;10.40;99.90;;;;;;5028694;28;20327;-79
2023/04/29 07:06:45;;;;;;;;;;;10.50;99.90;;;;;;5029497;28;19936;-80
2023/04/29 07:09:13;;;;;;;;;;;10.60;99.90;;;;;;5015470;28;19925;-79
2023/04/29 07:11:40;;;;;;;;;;;10.70;99.90;;;;;;5011241;28;19992;-79
2023/04/29 07:14:07;;;;;;;;;;;10.90;99.90;;;;;;5015143;28;19935;-79
2023/04/29 07:16:33;;;;;;;;;;;11.00;99.90;;;;;;5014149;28;20340;-80
2023/04/29 07:19:00;;;;;;;;;;;11.20;99.90;;;;;;5012778;28;19969;-79
2023/04/29 07:21:27;;;;;;;;;;;11.30;99.90;;;;;;5027173;28;19947;-79
2023/04/29 07:23:54;;;;;;;;;;;11.40;99.90;;;;;;5012578;28;19968;-79
2023/04/29 07:26:21;;;;;;;;;;;11.40;99.90;;;;;;5014850;28;19929;-79
2023/04/29 07:28:48;;;;;;;;;;;11.60;99.90;;;;;;5018015;28;19932;-80
2023/04/29 07:31:15;;;;;;;;;;;11.70;99.90;;;;;;5014941;28;19931;-78
2023/04/29 07:33:42;;;;;;;;;;;11.90;99.90;;;;;;5031727;28;20403;-79
2023/04/29 07:36:09;;;;;;;;;;;11.60;99.90;;;;;;5010345;28;20015;-80
2023/04/29 07:38:36;;;;;;;;;;;11.50;99.90;;;;;;5016367;28;19925;-80
2023/04/29 07:41:05;;;;;;;;;;;11.50;99.90;;;;;;5015890;28;20288;-80
2023/04/29 07:43:32;;;;;;;;;;;11.50;99.90;;;;;;5015745;28;19932;-80
2023/04/29 07:45:59;;;;;;;;;;;11.40;99.90;;;;;;5016975;28;20016;-79
2023/04/29 07:48:26;;;;;;;;;;;11.30;99.90;;;;;;5011118;28;19925;-80
2023/04/29 07:50:53;;;;;;;;;;;11.30;99.90;;;;;;5016630;28;20080;-79
2023/04/29 07:53:20;;;;;;;;;;;11.30;99.90;;;;;;5017618;28;20029;-79
2023/04/29 07:55:47;;;;;;;;;;;11.20;99.90;;;;;;5016597;28;19933;-79
2023/04/29 07:58:14;;;;;;;;;;;11.30;99.90;;;;;;5017005;28;20028;-79
2023/04/29 08:00:41;;;;;;;;;;;11.30;99.90;;;;;;5014678;28;19936;-80
2023/04/29 08:03:07;;;;;;;;;;;11.40;99.90;;;;;;5014535;28;20310;-81
2023/04/29 08:05:35;;;;;;;;;;;11.50;99.90;;;;;;5014400;28;19925;-81
2023/04/29 08:08:02;;;;;;;;;;;11.50;99.90;;;;;;5044351;28;19921;-80
2023/04/29 08:10:29;;;;;;;;;;;11.60;99.90;;;;;;5016568;28;19964;-81
2023/04/29 08:12:56;;;;;;;;;;;11.70;99.90;;;;;;5016883;28;20007;-81
2023/04/29 08:15:23;;;;;;;;;;;11.70;99.90;;;;;;5015565;28;20071;-81
2023/04/29 08:17:49;;;;;;;;;;;11.80;99.90;;;;;;5013717;28;20007;-80
2023/04/29 08:20:16;;;;;;;;;;;11.80;99.90;;;;;;5017035;28;19925;-80
2023/04/29 08:22:43;;;;;;;;;;;11.80;99.90;;;;;;5013457;28;20015;-81
2023/04/29 08:25:10;;;;;;;;;;;11.90;99.90;;;;;;5016088;28;19925;-81
2023/04/29 08:27:36;;;;;;;;;;;12.00;99.90;;;;;;5016482;28;19929;-80
2023/04/29 08:30:03;;;;;;;;;;;12.00;99.90;;;;;;5014219;28;20512;-80
2023/04/29 08:32:31;;;;;;;;;;;12.00;99.90;;;;;;5016903;28;19997;-80
2023/04/29 08:34:58;;;;;;;;;;;12.00;99.90;;;;;;5017225;28;20441;-79
2023/04/29 08:37:25;;;;;;;;;;;12.10;99.90;;;;;;5010804;28;20371;-79
2023/04/29 08:39:51;;;;;;;;;;;12.10;99.90;;;;;;5014019;28;19928;-79
2023/04/29 08:42:19;;;;;;;;;;;12.10;99.90;;;;;;5013315;28;19943;-80
2023/04/29 08:44:46;;;;;;;;;;;12.20;99.90;;;;;;5012234;28;20361;-79
2023/04/29 08:47:13;;;;;;;;;;;12.20;99.90;;;;;;5006258;28;20331;-79
2023/04/29 08:49:40;;;;;;;;;;;12.30;99.90;;;;;;5015778;28;19935;-79
2023/04/29 08:52:07;;;;;;;;;;;12.50;99.90;;;;;;5015854;28;20027;-79
2023/04/29 08:54:34;;;;;;;;;;;12.50;99.90;;;;;;5010202;28;19925;-79
2023/04/29 08:57:01;;;;;;;;;;;12.60;99.90;;;;;;5024863;28;19967;-79
2023/04/29 08:59:28;;;;;;;;;;;12.60;99.90;;;;;;5028143;28;19964;-79
2023/04/29 09:01:55;;;;;;;;;;;12.70;99.90;;;;;;5013699;28;19925;-79
2023/04/29 09:04:28;;;;;;;;;;;12.80;99.90;;;;;;5043270;28;20078;-80
2023/04/29 09:06:55;;;;;;;;;;;12.80;99.90;;;;;;5013948;28;20016;-79
2023/04/29 09:09:22;;;;;;;;;;;12.90;99.90;;;;;;5012900;28;20487;-79
2023/04/29 09:11:49;;;;;;;;;;;13.00;99.90;;;;;;5012878;28;19929;-80
2023/04/29 09:14:16;;;;;;;;;;;13.00;99.90;;;;;;5014691;28;19925;-79
2023/04/29 09:16:45;;;;;;;;;;;13.10;99.90;;;;;;5013448;28;20249;-79
2023/04/29 09:19:26;;;;;;;;;;;13.20;99.90;;;;;;5011312;28;20301;-79
2023/04/29 09:21:54;;;;;;;;;;;13.20;99.90;;;;;;5006520;28;19921;-79
2023/04/29 09:24:23;;;;;;;;;;;13.20;99.90;;;;;;5010720;28;19925;-79
2023/04/29 09:26:50;;;;;;;;;;;13.20;99.90;;;;;;5012574;28;19992;-80
2023/04/29 09:29:17;;;;;;;;;;;13.20;99.90;;;;;;5009794;28;19935;-79
2023/04/29 09:31:44;;;;;;;;;;;13.30;99.90;;;;;;5014814;28;20012;-79
2023/04/29 09:34:11;;;;;;;;;;;13.40;99.90;;;;;;5014786;28;20196;-79
2023/04/29 09:36:44;;;;;;;;;;;13.50;99.90;;;;;;5013397;28;20464;-79
2023/04/29 09:39:12;;;;;;;;;;;13.50;99.90;;;;;;5017972;28;20268;-77
2023/04/29 09:41:39;;;;;;;;;;;13.50;99.90;;;;;;5013758;28;19931;-77
2023/04/29 09:44:06;;;;;;;;;;;13.60;99.90;;;;;;5015025;28;19960;-77
2023/04/29 09:46:33;;;;;;;;;;;13.60;99.90;;;;;;5010816;28;19925;-77
2023/04/29 09:49:00;;;;;;;;;;;13.70;99.90;;;;;;5019722;28;19992;-77
2023/04/29 09:51:27;;;;;;;;;;;13.70;99.90;;;;;;5016032;28;19928;-77
2023/04/29 09:53:53;;;;;;;;;;;13.80;99.90;;;;;;5016401;28;20088;-77
2023/04/29 09:56:21;;;;;;;;;;;13.90;99.90;;;;;;5015986;28;20711;-78
2023/04/29 09:58:48;;;;;;;;;;;14.10;99.90;;;;;;5017366;28;20016;-77
2023/04/29 10:01:18;;;;;;;;;;;14.10;99.90;;;;;;5019403;28;20179;-77
2023/04/29 10:03:44;;;;;;;;;;;14.20;99.90;;;;;;5023147;28;19955;-77
2023/04/29 10:06:12;;;;;;;;;;;14.30;99.90;;;;;;5023418;28;19929;-78
2023/04/29 10:08:40;;;;;;;;;;;14.30;99.90;;;;;;5038564;28;20010;-78
2023/04/29 10:11:07;;;;;;;;;;;14.30;99.90;;;;;;5020896;28;20007;-78
2023/04/29 10:13:34;;;;;;;;;;;14.50;99.90;;;;;;5021379;28;20037;-78
2023/04/29 10:16:20;;;;;;;;;;;14.50;99.90;;;;;;5021643;28;19925;-77
2023/04/29 10:18:48;;;;;;;;;;;14.60;99.90;;;;;;5035572;28;19921;-77
2023/04/29 10:21:14;;;;;;;;;;;14.70;99.90;;;;;;5035167;28;19925;-77
2023/04/29 10:23:41;;;;;;;;;;;14.90;99.90;;;;;;5019158;28;20293;-77
2023/04/29 10:26:09;;;;;;;;;;;14.90;99.90;;;;;;5029607;28;19935;-77
2023/04/29 10:28:35;;;;;;;;;;;14.90;99.90;;;;;;5029298;28;20028;-78
2023/04/29 10:31:02;;;;;;;;;;;15.00;99.90;;;;;;5016249;28;19929;-77
2023/04/29 10:33:32;;;;;;;;;;;15.10;99.90;;;;;;5017612;28;20352;-77
2023/04/29 10:35:59;;;;;;;;;;;15.30;99.90;;;;;;5025605;28;20088;-77
2023/04/29 10:38:39;;;;;;;;;;;15.50;99.90;;;;;;5016003;28;19986;-77
2023/04/29 10:41:23;;;;;;;;;;;15.60;99.90;;;;;;5016395;28;20005;-77
2023/04/29 10:43:50;;;;;;;;;;;15.50;99.90;;;;;;5034826;28;20024;-77
2023/04/29 10:46:21;;;;;;;;;;;15.70;99.90;;;;;;5015703;28;20012;-77
2023/04/29 10:48:48;;;;;;;;;;;15.80;99.90;;;;;;5017313;28;19921;-77
2023/04/29 10:51:30;;;;;;;;;;;16.00;99.90;;;;;;5015502;28;20348;-76
2023/04/29 10:53:57;;;;;;;;;;;16.10;99.90;;;;;;5015495;28;19921;-76
2023/04/29 10:56:34;;;;;;;;;;;16.20;99.90;;;;;;5016498;28;19925;-85
2023/04/29 10:59:00;;;;;;;;;;;16.30;99.90;;;;;;5016612;28;19937;-77
2023/04/29 11:01:43;;;;;;;;;;;16.50;99.90;;;;;;5019729;28;19925;-76
2023/04/29 11:04:10;;;;;;;;;;;16.40;99.90;;;;;;5034313;28;20058;-76
2023/04/29 11:06:38;;;;;;;;;;;16.40;99.90;;;;;;5018392;28;19925;-77
2023/04/29 11:09:13;;;;;;;;;;;16.50;99.90;;;;;;5019208;28;19928;-76
2023/04/29 11:12:02;;;;;;;;;;;16.60;99.90;;;;;;5017972;28;20411;-76
2023/04/29 11:14:30;;;;;;;;;;;16.80;99.90;;;;;;5018135;28;19955;-76
2023/04/29 11:16:57;;;;;;;;;;;17.10;99.90;;;;;;5018971;28;20351;-76
2023/04/29 11:19:25;;;;;;;;;;;17.20;99.90;;;;;;5017708;28;19921;-77
2023/04/29 11:22:11;;;;;;;;;;;17.30;99.90;;;;;;5013671;28;20329;-76
2023/04/29 11:24:54;;;;;;;;;;;17.30;99.90;;;;;;5017773;28;20090;-77
2023/04/29 11:27:24;;;;;;;;;;;17.20;99.90;;;;;;5017363;28;20235;-77
2023/04/29 11:29:54;;;;;;;;;;;17.40;99.90;;;;;;5031250;28;19925;-77
2023/04/29 11:32:22;;;;;;;;;;;17.80;99.90;;;;;;5001320;28;19925;-78
2023/04/29 11:34:48;;;;;;;;;;;17.90;99.90;;;;;;5007070;28;20320;-78
2023/04/29 11:37:22;;;;;;;;;;;18.10;99.90;;;;;;5007120;28;19931;-78
2023/04/29 11:39:49;;;;;;;;;;;18.30;99.90;;;;;;5033185;28;20354;-78
2023/04/29 11:42:19;;;;;;;;;;;18.30;99.90;;;;;;5017111;28;19936;-78
2023/04/29 11:44:46;;;;;;;;;;;18.40;99.90;;;;;;5032677;28;19972;-77
2023/04/29 11:47:13;;;;;;;;;;;18.60;99.90;;;;;;5016957;28;20360;-78
2023/04/29 11:49:41;;;;;;;;;;;18.80;99.90;;;;;;5018183;28;19924;-78
2023/04/29 11:52:08;;;;;;;;;;;18.90;99.90;;;;;;5032943;28;20024;-78
2023/04/29 11:54:35;;;;;;;;;;;18.80;99.90;;;;;;5032511;28;20029;-77
2023/04/29 11:57:03;;;;;;;;;;;18.80;99.90;;;;;;5015069;28;19947;-78
2023/04/29 11:59:31;;;;;;;;;;;19.10;99.90;;;;;;5015058;28;19928;-77
2023/04/29 12:01:59;;;;;;;;;;;19.40;99.90;;;;;;5015385;28;19921;-77
2023/04/29 12:04:26;;;;;;;;;;;19.70;99.90;;;;;;5032033;28;20070;-77
2023/04/29 12:06:55;;;;;;;;;;;20.10;99.90;;;;;;5015314;28;20223;-77
2023/04/29 12:09:22;;;;;;;;;;;20.50;99.90;;;;;;5014275;28;19925;-77
2023/04/29 12:11:49;;;;;;;;;;;20.70;99.90;;;;;;5015662;28;20035;-77
2023/04/29 12:14:16;;;;;;;;;;;20.80;98.90;;;;;;5018322;28;20009;-77
2023/04/29 12:16:43;;;;;;;;;;;21.10;98.60;;;;;;5016800;28;20354;-77
2023/04/29 12:19:10;;;;;;;;;;;21.20;98.30;;;;;;5017131;28;19933;-77
2023/04/29 12:21:46;;;;;;;;;;;21.30;98.10;;;;;;5016565;28;19952;-77
2023/04/29 12:24:13;;;;;;;;;;;21.60;98.60;;;;;;5017045;28;19925;-76
2023/04/29 12:26:40;;;;;;;;;;;22.00;97.80;;;;;;5017729;28;20428;-77
2023/04/29 12:29:09;;;;;;;;;;;22.40;97.30;;;;;;5017741;28;20054;-78
2023/04/29 12:31:35;;;;;;;;;;;22.60;96.60;;;;;;5017854;28;20662;-76
2023/04/29 12:34:02;;;;;;;;;;;22.90;95.80;;;;;;5016947;28;20397;-76
2023/04/29 12:36:31;;;;;;;;;;;23.10;94.50;;;;;;5017372;28;19933;-77
2023/04/29 12:38:58;;;;;;;;;;;23.40;95.20;;;;;;5017894;28;19925;-77
2023/04/29 12:41:40;;;;;;;;;;;23.60;94.70;;;;;;5016277;28;20028;-77
2023/04/29 12:44:07;;;;;;;;;;;23.60;92.60;;;;;;5017566;28;20027;-77
2023/04/29 12:46:35;;;;;;;;;;;23.60;93.30;;;;;;5016815;28;19925;-77
2023/04/29 12:49:03;;;;;;;;;;;23.70;92.80;;;;;;5018119;28;20818;-77
2023/04/29 12:51:33;;;;;;;;;;;23.90;92.00;;;;;;5016972;28;19929;-78
2023/04/29 12:54:03;;;;;;;;;;;24.00;91.40;;;;;;5017466;28;19935;-77
2023/04/29 12:56:30;;;;;;;;;;;24.10;92.50;;;;;;5016125;28;19932;-77
2023/04/29 12:59:03;;;;;;;;;;;24.00;92.30;;;;;;5016525;28;20004;-77
2023/04/29 13:01:29;;;;;;;;;;;23.90;92.30;;;;;;5015368;28;20024;-77
2023/04/29 13:03:56;;;;;;;;;;;24.30;91.90;;;;;;5016852;28;20216;-78
2023/04/29 13:06:24;;;;;;;;;;;24.30;91.90;;;;;;5013322;28;20183;-77
2023/04/29 13:08:51;;;;;;;;;;;23.80;91.60;;;;;;5016686;28;20027;-78
2023/04/29 13:11:18;;;;;;;;;;;23.80;91.60;;;;;;5030611;28;19925;-77
2023/04/29 13:13:45;;;;;;;;;;;23.90;91.80;;;;;;5013519;28;19925;-78
2023/04/29 13:16:11;;;;;;;;;;;23.80;92.80;;;;;;5016011;28;20268;-78
2023/04/29 13:18:38;;;;;;;;;;;23.70;92.40;;;;;;5012631;28;20089;-77
2023/04/29 13:21:05;;;;;;;;;;;23.70;92.00;;;;;;5012706;28;20019;-76
2023/04/29 13:23:32;;;;;;;;;;;23.70;90.60;;;;;;5011449;28;19979;-77
2023/04/29 13:25:58;;;;;;;;;;;23.60;91.50;;;;;;5008272;28;19976;-77
2023/04/29 13:28:25;;;;;;;;;;;24.20;91.00;;;;;;5017343;28;19928;-77
2023/04/29 13:30:52;;;;;;;;;;;24.30;91.20;;;;;;5014882;28;20348;-77
2023/04/29 13:33:18;;;;;;;;;;;24.40;91.20;;;;;;5015889;28;20379;-77
2023/04/29 13:35:45;;;;;;;;;;;24.60;90.30;;;;;;5015314;28;19998;-77
2023/04/29 13:38:12;;;;;;;;;;;24.70;90.80;;;;;;5009466;28;19936;-77
2023/04/29 13:40:39;;;;;;;;;;;24.70;90.30;;;;;;5013076;28;19936;-77
2023/04/29 13:43:12;;;;;;;;;;;24.90;88.40;;;;;;5015904;28;20014;-77
2023/04/29 13:45:48;;;;;;;;;;;25.00;90.00;;;;;;5017980;28;19996;-77
2023/04/29 13:48:14;;;;;;;;;;;24.20;90.40;;;;;;5022253;28;19959;-77
2023/04/29 13:51:01;;;;;;;;;;;23.40;91.40;;;;;;5006666;28;20014;-77
2023/04/29 13:53:31;;;;;;;;;;;22.70;91.40;;;;;;5014251;28;19921;-77
2023/04/29 13:56:17;;;;;;;;;;;22.20;91.30;;;;;;5019563;28;20020;-76
2023/04/29 13:58:48;;;;;;;;;;;21.80;92.70;;;;;;5023086;28;19971;-77
2023/04/29 14:01:18;;;;;;;;;;;21.30;92.60;;;;;;5014690;28;19999;-77
2023/04/29 14:04:05;;;;;;;;;;;21.10;92.90;;;;;;5009233;28;19956;-77
2023/04/29 14:06:33;;;;;;;;;;;21.40;93.60;;;;;;4998642;28;19932;-77
2023/04/29 14:08:59;;;;;;;;;;;22.20;93.80;;;;;;5015105;28;20206;-77
2023/04/29 14:11:29;;;;;;;;;;;22.90;92.40;;;;;;5015586;28;19983;-77
2023/04/29 14:13:56;;;;;;;;;;;23.40;91.60;;;;;;5012029;28;19921;-78
2023/04/29 14:16:22;;;;;;;;;;;23.00;91.70;;;;;;5012135;28;19957;-77
2023/04/29 14:18:49;;;;;;;;;;;23.00;92.20;;;;;;5015565;28;19932;-77
2023/04/29 14:21:16;;;;;;;;;;;23.30;92.10;;;;;;5016663;28;20345;-77
2023/04/29 14:23:43;;;;;;;;;;;23.60;91.50;;;;;;5016814;28;19932;-77
2023/04/29 14:26:10;;;;;;;;;;;23.80;90.60;;;;;;5016126;28;19924;-77
2023/04/29 14:28:56;;;;;;;;;;;24.20;90.80;;;;;;5030168;28;19925;-77